Koun Maru — JK5556 — position and weather

sailwx.info

Track history (hours):
 
Tides and Currents Weather Stations Pressure Air Temp Water Temp Dewpoint Dewpoint Depression Visibility Wind Speed Wind Dir Waves Ship Positions

Koun Maru

Last reported at 2016-Jul-27 07:06 UTC. Time now 2016-Jul-27 15:25 UTC.
Position N 34°37' E 135°05'.

Length 40 m.

Type: Tanker. MMSI: 431401871.

Date/timePositionNaut miles runAvg speedWind from/ knotsBaromVisibWave heightAir tempDewpointWater temp
2016-Jul-27 07:06N 34°37' E 135°05'5 9.4
2016-Jul-27 06:33N 34°39' E 135°11'5 4.3
2016-Jul-27 05:21N 34°42' E 135°15'0 0.0
2016-Jul-27 04:33N 34°42' E 135°15'0 0.0
2016-Jul-27 03:33N 34°42' E 135°15'0 0.0
2016-Jul-27 02:32N 34°42' E 135°15'1 1.5
2016-Jul-27 01:33N 34°42' E 135°17'  
2016-Jul-20 00:22N 34°36' E 135°24'5 0.5
2016-Jul-19 14:26N 34°33' E 135°18'9 9.5
2016-Jul-19 13:33N 34°35' E 135°08'  
Track history (hours):
 
Tides and Currents Weather Stations Pressure Air Temp Water Temp Dewpoint Dewpoint Depression Visibility Wind Speed Wind Dir Waves Ship Positions

Koun Maru

Last reported at 2016-Jul-27 07:06 UTC. Time now 2016-Jul-27 15:25 UTC.
Position N 34°37' E 135°05'.

Length 40 m.

Type: Tanker. MMSI: 431401871.

Date/timePositionNaut miles runAvg speedWind from/ knotsBaromVisibWave heightAir tempDewpointWater temp
2016-Jul-27 07:06N 34°37' E 135°05'5 9.4
2016-Jul-27 06:33N 34°39' E 135°11'5 4.3
2016-Jul-27 05:21N 34°42' E 135°15'0 0.0
2016-Jul-27 04:33N 34°42' E 135°15'0 0.0
2016-Jul-27 03:33N 34°42' E 135°15'0 0.0
2016-Jul-27 02:32N 34°42' E 135°15'1 1.5
2016-Jul-27 01:33N 34°42' E 135°17'  
2016-Jul-20 00:22N 34°36' E 135°24'5 0.5
2016-Jul-19 14:26N 34°33' E 135°18'9 9.5
2016-Jul-19 13:33N 34°35' E 135°08'  

Dump ship's entire track history